Flight Track Log - Related Links

Times and Time Zones

All times are in EDT time to prevent confusion due to time zone crossing. See the AWI3803 flight status page for this flight to view local times or setup timezone preferences in your user account.

Time Position Orientation Groundspeed Altitude Reporting Facility
EDT Latitude Longitude Course Direction KTS MPH feet Rate Location/Type
Tue 01:19:27 PM 38.8333 -77.0333 326° Northwest 160 184 800  Level Potomac TRACON
Tue 01:20:27 PM 38.7833 -77.0333 180° South 196 226 2,200 1,632 Climbing Potomac TRACON
Tue 01:21:21 PM 38.7167 -77.0167 169° South 246 283 3,900 1,750 Climbing Potomac TRACON
Tue 01:22:00 PM 39.0635 -77.2310 330° Northwest  Level FlightAware Approximate
Tue 01:22:27 PM 38.6833 -77.1000 243° Southwest 278 320 5,700  Level Potomac TRACON
Tue 01:23:00 PM 39.1388 -77.2944 339° North  Level FlightAware Approximate
Tue 01:23:22 PM 38.6667 -77.1833 256° West 276 318 7,300  Level Potomac TRACON
Tue 01:24:00 PM 39.2066 -77.3675 326° Northwest  Level FlightAware Approximate
Tue 01:24:22 PM 38.6667 -77.2833 270° West 291 335 9,500  Level Potomac TRACON
Tue 01:25:22 PM 38.7333 -77.3500 322° Northwest 290 334 11,600 1,476 Climbing Potomac TRACON
Tue 01:26:28 PM 38.8167 -77.4167 328° Northwest 333 383 12,600 1,134 Climbing Potomac TRACON
Tue 01:27:29 PM 38.9000 -77.4667 335° Northwest 334 384 14,000 1,339 Climbing Potomac TRACON
Tue 01:28:29 PM 39.0000 -77.5333 333° Northwest 346 398 15,300 1,146 Climbing Potomac TRACON
Tue 01:30:06 PM 39.1322 -77.5931 341° North 373 429 17,000 650 Climbing Washington Center
Tue 01:31:06 PM 39.2303 -77.5931 360° North 362 417 17,000 51 Level Washington Center
Tue 01:32:04 PM 39.3303 -77.5986 358° North 357 411 17,100 504 Climbing Washington Center
Tue 01:33:05 PM 39.4103 -77.6786 322° Northwest 342 394 18,000 934 Climbing Washington Center
Tue 01:34:06 PM 39.4814 -77.7775 313° West 357 411 19,000 1,008 Climbing Washington Center
Tue 01:35:04 PM 39.5461 -77.8817 309° West 362 417 20,000 1,008 Climbing Washington Center
Tue 01:36:05 PM 39.5831 -78.0094 291° West 372 428 21,000 917 Climbing Washington Center
Tue 01:37:28 PM 39.6442 -78.2053 292° West 383 441 22,200 671 Climbing Cleveland Center
Tue 01:38:28 PM 39.6803 -78.3389 289° West 389 448 22,600 550 Climbing Cleveland Center
Tue 01:39:28 PM 39.7225 -78.4725 292° West 389 448 23,300 850 Climbing Cleveland Center
Tue 01:40:28 PM 39.7603 -78.6036 291° West 389 448 24,300 900 Climbing Cleveland Center
Tue 01:41:28 PM 39.7958 -78.7350 289° West 389 448 25,100 850 Climbing Cleveland Center
Tue 01:42:28 PM 39.8353 -78.8664 291° West 389 448 26,000 900 Climbing Cleveland Center
Tue 01:43:28 PM 39.8706 -78.9844 291° West 384 442 26,900 1,000 Climbing Cleveland Center
Tue 01:44:28 PM 39.9075 -79.1136 290° West 384 442 28,000 550 Climbing Cleveland Center
Tue 01:45:28 PM 39.9447 -79.2428 291° West 384 442 28,000  Level Cleveland Center
Tue 01:46:28 PM 39.9836 -79.3692 292° West 384 442 28,000  Level Cleveland Center
Tue 01:47:28 PM 40.0411 -79.4822 304° West 379 436 28,000  Level Cleveland Center
Tue 01:48:28 PM 40.1006 -79.5978 304° West 379 436 28,000  Level Cleveland Center
Tue 01:49:28 PM 40.1597 -79.7139 304° West 379 436 28,000  Level Cleveland Center
Tue 01:50:28 PM 40.2189 -79.8272 304° West 379 436 28,000  Level Cleveland Center
Tue 01:51:28 PM 40.2758 -79.9436 303° West 384 442 28,000  Level Cleveland Center
Tue 01:52:28 PM 40.3328 -80.0603 303° West 384 442 28,000  Level Cleveland Center
Tue 01:53:28 PM 40.3894 -80.1769 303° West 384 442 28,000  Level Cleveland Center
Tue 01:54:28 PM 40.4503 -80.2939 304° West 384 442 28,000  Level Cleveland Center
Tue 01:55:28 PM 40.5111 -80.4083 305° West 384 442 28,000  Level Cleveland Center
Tue 01:56:28 PM 40.5758 -80.5367 304° West 391 450 28,000  Level Cleveland Center
Tue 01:57:28 PM 40.6278 -80.6461 302° West 391 450 28,000  Level Cleveland Center
Tue 01:58:28 PM 40.6925 -80.7747 304° West 396 456 28,000  Level Cleveland Center
Tue 01:59:28 PM 40.7525 -80.8956 303° West 390 449 28,000  Level Cleveland Center
Tue 02:00:28 PM 40.8106 -81.0139 303° West 390 449 28,000  Level Cleveland Center
Tue 02:01:28 PM 40.8642 -81.1322 301° West 390 449 28,000  Level Cleveland Center
Tue 02:02:28 PM 40.9219 -81.2508 303° West 390 449 28,000  Level Cleveland Center
Tue 02:03:28 PM 40.9817 -81.3725 303° West 390 449 28,000  Level Cleveland Center
Tue 02:04:28 PM 41.0369 -81.4917 302° West 390 449 28,000  Level Cleveland Center
Tue 02:05:28 PM 41.0964 -81.6136 303° West 390 449 28,000 -500 Level Cleveland Center
Tue 02:06:28 PM 41.1619 -81.7442 304° West 406 467 27,000 -1,250 Descending Cleveland Center
Tue 02:07:28 PM 41.2314 -81.8836 304° West 433 498 25,500 -1,450 Descending Cleveland Center
Tue 02:08:28 PM 41.2942 -82.0203 301° West 444 511 24,100 -1,100 Descending Cleveland Center
Tue 02:09:28 PM 41.3569 -82.1628 300° West 444 511 23,300 -1,200 Descending Cleveland Center
Tue 02:10:28 PM 41.4322 -82.2892 308° West 439 505 21,700 -1,550 Descending Cleveland Center
Tue 02:11:28 PM 41.5075 -82.4158 308° West 439 505 20,200 -1,650 Descending Cleveland Center
Tue 02:12:28 PM 41.5806 -82.5375 309° West 434 499 18,400 -1,689 Descending Cleveland Center
Tue 02:13:11 PM 41.6333 -82.6167 312° West 416 479 17,300 -2,651 Descending Cleveland Center
Tue 02:13:54 PM 41.6839 -82.7075 307° West 394 453 14,600 -3,662 Descending Cleveland Center
Tue 02:14:28 PM 41.7100 -82.7556 306° West 406 467 12,600 -1,660 Descending Cleveland Center
Tue 02:15:28 PM 41.7772 -82.8442 316° Northwest 367 422 12,000 -700 Descending Cleveland Center
Tue 02:16:28 PM 41.8422 -82.9217 318° Northwest 334 384 11,200 -667 Descending Cleveland Center
Tue 02:16:58 PM 41.8850 -82.9706 320° Northwest 313 360 11,000 -200 Descending Cleveland Center
Tue 02:17:28 PM 41.9053 -82.9994 313° West 316 364 11,000  Level Cleveland Center
Tue 02:17:59 PM 41.9481 -83.0456 321° Northwest 307 353 11,000  Level Cleveland Center
Tue 02:19:00 PM 42.0150 -83.1264 318° Northwest 320 368 11,000  Level Cleveland Center
Tue 02:20:02 PM 42.0861 -83.2161 317° Northwest 326 375 11,000  Level Cleveland Center
Tue 02:20:57 PM 42.1519 -83.2467 341° North 264 304 11,000 -70 Level Cleveland Center
Tue 02:21:28 PM 42.1769 -83.2478 358° North 253 291 10,900 -968 Descending Cleveland Center
Tue 02:21:59 PM 42.2153 -83.2242 25° Northeast 244 281 10,000 -1,469 Descending Cleveland Center
Tue 02:23:06 PM 42.2808 -83.1764 28° Northeast 232 267 8,500 -938 Descending Cleveland Center
Tue 02:24:07 PM 42.3381 -83.1367 27° Northeast 219 252 8,000 -829 Descending Cleveland Center
Tue 02:25:09 PM 42.3892 -83.0908 34° Northeast 229 264 6,800 -1,026 Descending Cleveland Center
Tue 02:26:04 PM 42.4339 -83.0447 37° Northeast 210 242 6,000 -414 Descending Cleveland Center
Tue 02:27:05 PM 42.4794 -83.0578 348° North 192 221 6,000  Level Cleveland Center
Tue 02:28:12 PM 42.4778 -83.1394 268° West 208 239 6,000 -372 Level Cleveland Center
Tue 02:29:14 PM 42.4267 -83.1825 212° Southwest 204 235 5,200 -927 Descending Cleveland Center
Tue 02:30:15 PM 42.3778 -83.2169 207° Southwest 197 227 4,100 -1,034 Descending Cleveland Center
Tue 02:31:10 PM 42.3356 -83.2517 211° Southwest 197 227 3,200 -983 Descending Cleveland Center
Tue 02:32:11 PM 42.2889 -83.2833 207° Southwest 152 175 2,200 -829 Descending Cleveland Center
Tue 02:33:13 PM 42.2528 -83.3100 209° Southwest 145 167 1,500 -677 Descending Cleveland Center

Login

Don't have an account? Register now (free) for customized features, flight alerts, and more!